Norse Mersey — IBEN — position and weather

sailwx.info

Track history (hours):
 
Tides and Currents Weather Stations Pressure Air Temp Water Temp Dewpoint Dewpoint Depression Visibility Wind Speed Wind Dir Waves Ship Positions

Norse Mersey

Operator: Norse Merchant Ferries

Last reported at 2016-May-25 10:33 UTC. Time now 2016-May-25 11:11 UTC.
Position N 38°15' E 015°38'.

Length 175 m; draft 5.7 m.

Type: Ship (hazmat cat A). MMSI: 247026000.

Date/timePositionNaut miles runAvg speedWind from/ knotsBaromVisibWave heightAir tempDewpointWater temp
2016-May-25 10:33N 38°15' E 015°38'1414.1
2016-May-25 09:33N 38°29' E 015°35'1515.1
2016-May-25 08:33N 38°43' E 015°28'117 6.7
2016-May-24 15:04N 40°35' E 014°43'815.0
2016-May-24 14:31N 40°27' E 014°44'9114.2
2016-May-24 08:06N 39°01' E 015°22'1114.8
2016-May-24 07:22N 38°50' E 015°27'1315.0
2016-May-24 06:31N 38°39' E 015°33'1515.5
2016-May-24 05:33N 38°25' E 015°40'1313.3
2016-May-24 04:34N 38°12' E 015°37'1413.8
2016-May-24 03:33N 37°58' E 015°32'51 5.1
2016-May-23 17:33N 37°08' E 015°23'1514.9
2016-May-23 16:32N 36°52' E 015°22'1616.0
2016-May-23 15:30N 36°38' E 015°13'3115.7
2016-May-23 13:33N 36°13' E 014°50'1515.4
2016-May-23 12:33N 36°01' E 014°38'10 0.9
2016-May-23 01:08N 35°53' E 014°31'4 7.0
2016-May-23 00:33N 35°56' E 014°34'1414.0
2016-May-22 23:33N 36°08' E 014°44'1414.1
2016-May-22 22:33N 36°19' E 014°55'1414.2
2016-May-22 21:33N 36°30' E 015°06'1414.1
2016-May-22 20:33N 36°42' E 015°15'57 4.3
2016-May-22 07:19N 37°39' E 015°17'1215.5
2016-May-22 06:33N 37°50' E 015°24'1615.7
2016-May-22 05:33N 38°04' E 015°32'1514.9
2016-May-22 04:33N 38°17' E 015°40'1413.8
2016-May-22 03:33N 38°30' E 015°35'1616.0
2016-May-22 02:32N 38°46' E 015°27'9916.0
2016-May-21 20:19N 40°19' E 014°45'8 0.6
2016-May-21 08:31N 40°27' E 014°44'9414.7
2016-May-21 02:08N 38°58' E 015°23'915.2
2016-May-21 01:33N 38°50' E 015°27'1615.7
2016-May-21 00:32N 38°35' E 015°35'1515.6
2016-May-20 23:33N 38°21' E 015°42'1313.1
2016-May-20 22:33N 38°08' E 015°36'1514.8
2016-May-20 21:33N 37°55' E 015°29'15 1.1
2016-May-20 07:33N 37°42' E 015°19'1615.8
2016-May-20 06:34N 37°56' E 015°27'1615.8
2016-May-20 05:33N 38°10' E 015°36'1414.2
2016-May-20 04:33N 38°25' E 015°38'1615.5
2016-May-20 03:33N 38°39' E 015°31'14 0.5
2016-May-19 00:33N 38°53' E 015°26'1716.2
2016-May-18 23:32N 38°37' E 015°33'1616.1
2016-May-18 22:34N 38°23' E 015°40'1313.2
2016-May-18 21:33N 38°10' E 015°37'1615.5
2016-May-18 20:33N 37°55' E 015°30'19 1.7
2016-May-18 09:12N 37°39' E 015°17'1215.6
2016-May-18 08:27N 37°49' E 015°23'1415.8
2016-May-18 07:34N 38°02' E 015°31'1615.6
2016-May-18 06:34N 38°16' E 015°40'1313.1
2016-May-18 05:33N 38°29' E 015°36'1514.9
2016-May-18 04:33N 38°43' E 015°29'10615.1
2016-May-17 21:32N 40°23' E 014°45'8 0.8
2016-May-17 11:33N 40°31' E 014°44'11115.8
2016-May-17 04:32N 38°46' E 015°29'1616.3
2016-May-17 03:33N 38°31' E 015°37'1515.2
2016-May-17 02:33N 38°16' E 015°41'1514.6
2016-May-17 01:33N 38°03' E 015°34'99 8.2
2016-May-16 13:27N 36°27' E 015°03'1415.6
2016-May-16 12:34N 36°16' E 014°53'1615.4
2016-May-16 11:33N 36°04' E 014°41'10 0.9
2016-May-16 00:33N 35°55' E 014°33'  
Track history (hours):
 
Tides and Currents Weather Stations Pressure Air Temp Water Temp Dewpoint Dewpoint Depression Visibility Wind Speed Wind Dir Waves Ship Positions

Norse Mersey

Operator: Norse Merchant Ferries

Last reported at 2016-May-25 10:33 UTC. Time now 2016-May-25 11:11 UTC.
Position N 38°15' E 015°38'.

Length 175 m; draft 5.7 m.

Type: Ship (hazmat cat A). MMSI: 247026000.

Date/timePositionNaut miles runAvg speedWind from/ knotsBaromVisibWave heightAir tempDewpointWater temp
2016-May-25 10:33N 38°15' E 015°38'1414.1
2016-May-25 09:33N 38°29' E 015°35'1515.1
2016-May-25 08:33N 38°43' E 015°28'117 6.7
2016-May-24 15:04N 40°35' E 014°43'815.0
2016-May-24 14:31N 40°27' E 014°44'9114.2
2016-May-24 08:06N 39°01' E 015°22'1114.8
2016-May-24 07:22N 38°50' E 015°27'1315.0
2016-May-24 06:31N 38°39' E 015°33'1515.5
2016-May-24 05:33N 38°25' E 015°40'1313.3
2016-May-24 04:34N 38°12' E 015°37'1413.8
2016-May-24 03:33N 37°58' E 015°32'51 5.1
2016-May-23 17:33N 37°08' E 015°23'1514.9
2016-May-23 16:32N 36°52' E 015°22'1616.0
2016-May-23 15:30N 36°38' E 015°13'3115.7
2016-May-23 13:33N 36°13' E 014°50'1515.4
2016-May-23 12:33N 36°01' E 014°38'10 0.9
2016-May-23 01:08N 35°53' E 014°31'4 7.0
2016-May-23 00:33N 35°56' E 014°34'1414.0
2016-May-22 23:33N 36°08' E 014°44'1414.1
2016-May-22 22:33N 36°19' E 014°55'1414.2
2016-May-22 21:33N 36°30' E 015°06'1414.1
2016-May-22 20:33N 36°42' E 015°15'57 4.3
2016-May-22 07:19N 37°39' E 015°17'1215.5
2016-May-22 06:33N 37°50' E 015°24'1615.7
2016-May-22 05:33N 38°04' E 015°32'1514.9
2016-May-22 04:33N 38°17' E 015°40'1413.8
2016-May-22 03:33N 38°30' E 015°35'1616.0
2016-May-22 02:32N 38°46' E 015°27'9916.0
2016-May-21 20:19N 40°19' E 014°45'8 0.6
2016-May-21 08:31N 40°27' E 014°44'9414.7
2016-May-21 02:08N 38°58' E 015°23'915.2
2016-May-21 01:33N 38°50' E 015°27'1615.7
2016-May-21 00:32N 38°35' E 015°35'1515.6
2016-May-20 23:33N 38°21' E 015°42'1313.1
2016-May-20 22:33N 38°08' E 015°36'1514.8
2016-May-20 21:33N 37°55' E 015°29'15 1.1
2016-May-20 07:33N 37°42' E 015°19'1615.8
2016-May-20 06:34N 37°56' E 015°27'1615.8
2016-May-20 05:33N 38°10' E 015°36'1414.2
2016-May-20 04:33N 38°25' E 015°38'1615.5
2016-May-20 03:33N 38°39' E 015°31'14 0.5
2016-May-19 00:33N 38°53' E 015°26'1716.2
2016-May-18 23:32N 38°37' E 015°33'1616.1
2016-May-18 22:34N 38°23' E 015°40'1313.2
2016-May-18 21:33N 38°10' E 015°37'1615.5
2016-May-18 20:33N 37°55' E 015°30'19 1.7
2016-May-18 09:12N 37°39' E 015°17'1215.6
2016-May-18 08:27N 37°49' E 015°23'1415.8
2016-May-18 07:34N 38°02' E 015°31'1615.6
2016-May-18 06:34N 38°16' E 015°40'1313.1
2016-May-18 05:33N 38°29' E 015°36'1514.9
2016-May-18 04:33N 38°43' E 015°29'10615.1
2016-May-17 21:32N 40°23' E 014°45'8 0.8
2016-May-17 11:33N 40°31' E 014°44'11115.8
2016-May-17 04:32N 38°46' E 015°29'1616.3
2016-May-17 03:33N 38°31' E 015°37'1515.2
2016-May-17 02:33N 38°16' E 015°41'1514.6
2016-May-17 01:33N 38°03' E 015°34'99 8.2
2016-May-16 13:27N 36°27' E 015°03'1415.6
2016-May-16 12:34N 36°16' E 014°53'1615.4
2016-May-16 11:33N 36°04' E 014°41'10 0.9
2016-May-16 00:33N 35°55' E 014°33'  

Dump ship's entire track history